createdAt,value
2018-08-28T02:18:34.810Z,16.40
2018-08-28T02:22:01.688Z,14.50
2018-08-28T02:24:35.809Z,14.50
2018-08-28T02:27:16.795Z,14.40
2018-08-28T02:35:42.684Z,14.40
2018-08-28T02:38:30.351Z,14.40
2018-08-28T02:41:25.452Z,14.40
2018-08-28T02:44:17.639Z,14.40
2018-08-28T02:50:11.137Z,14.50
2018-08-28T02:52:53.131Z,14.60
2018-08-28T02:55:47.857Z,14.70
2018-08-28T02:58:29.379Z,14.70
2018-08-28T03:01:11.084Z,14.70
2018-08-28T03:03:50.003Z,14.70
2018-08-28T03:06:22.795Z,14.70
2018-08-28T03:08:56.392Z,14.80
2018-08-28T03:11:29.070Z,14.80
2018-08-28T03:14:04.974Z,14.80
2018-08-28T03:16:43.342Z,14.80
2018-08-28T03:19:21.757Z,14.90
2018-08-28T03:21:57.796Z,14.90
2018-08-28T03:24:37.472Z,14.90
2018-08-28T03:27:48.656Z,14.90
2018-08-28T03:30:36.687Z,14.90
2018-08-28T03:33:11.420Z,14.90
2018-08-28T03:35:44.908Z,14.90
2018-08-28T03:38:20.576Z,14.90
2018-08-28T03:40:58.770Z,15.00
2018-08-28T03:43:30.149Z,15.00
2018-08-28T03:46:03.408Z,15.00
2018-08-28T03:48:37.149Z,15.00
2018-08-28T03:51:10.071Z,15.10
2018-08-28T03:53:49.627Z,15.10
2018-08-28T03:56:26.253Z,15.10
2018-08-28T03:59:11.069Z,15.10
2018-08-28T04:01:45.909Z,15.10
2018-08-28T04:04:42.045Z,15.10
2018-08-28T04:07:17.342Z,15.10
2018-08-28T04:09:51.673Z,15.10
2018-08-28T04:12:26.924Z,15.10
2018-08-28T04:15:07.469Z,15.10
2018-08-28T04:17:55.513Z,15.10
2018-08-28T04:20:40.307Z,15.10
2018-08-28T04:23:20.429Z,15.00
2018-08-28T04:25:54.203Z,15.00
2018-08-28T04:28:30.490Z,15.10
2018-08-28T04:31:13.738Z,15.00
2018-08-28T04:33:44.466Z,15.00
2018-08-28T04:36:20.517Z,15.00
2018-08-28T04:38:55.035Z,15.00
2018-08-28T04:41:30.993Z,15.00
2018-08-28T04:44:07.936Z,15.00
2018-08-28T04:46:47.182Z,15.00
2018-08-28T04:49:24.734Z,15.00
2018-08-28T04:51:58.002Z,15.00
2018-08-28T04:57:13.731Z,15.00
2018-08-28T05:02:54.214Z,15.00
2018-08-28T05:05:34.141Z,15.00
2018-08-28T05:08:08.235Z,15.00
2018-08-28T05:10:47.199Z,15.00
2018-08-28T05:13:31.758Z,15.00
2018-08-28T05:16:11.058Z,15.00
2018-08-28T05:18:50.409Z,15.00
2018-08-28T05:21:45.382Z,15.00
2018-08-28T05:24:27.512Z,15.00
2018-08-28T05:27:03.981Z,15.10
2018-08-28T05:29:44.720Z,15.10
2018-08-28T05:35:16.199Z,15.10
2018-08-28T05:37:58.115Z,15.10
2018-08-28T05:40:34.741Z,15.10
2018-08-28T05:43:19.469Z,15.10
2018-08-28T05:46:34.987Z,15.20
2018-08-28T05:49:08.033Z,15.20
2018-08-28T05:51:45.862Z,15.30
2018-08-28T05:54:24.151Z,15.30
2018-08-28T05:56:57.303Z,15.30
2018-08-28T05:59:27.664Z,15.40
2018-08-28T06:01:58.595Z,15.40
2018-08-28T06:04:39.893Z,15.50
2018-08-28T06:07:10.837Z,15.50
2018-08-28T06:09:44.346Z,15.60
2018-08-28T06:12:15.750Z,15.70
2018-08-28T06:14:46.043Z,15.80
2018-08-28T06:17:15.322Z,15.90
2018-08-28T06:19:47.018Z,16.00
2018-08-28T06:22:16.362Z,16.10
2018-08-28T06:24:45.854Z,16.20
2018-08-28T06:27:26.855Z,16.30
2018-08-28T06:29:56.048Z,16.40
2018-08-28T06:32:29.044Z,16.50
2018-08-28T06:34:59.194Z,16.50
2018-08-28T06:37:28.871Z,16.50
2018-08-28T06:39:59.283Z,16.60
2018-08-28T06:42:28.356Z,16.60
2018-08-28T06:44:57.641Z,16.60
2018-08-28T06:47:27.222Z,16.70
2018-08-28T06:49:56.989Z,16.70
2018-08-28T06:52:26.317Z,16.70
2018-08-28T06:54:55.554Z,16.70
2018-08-28T06:57:25.770Z,16.70
2018-08-28T06:59:56.637Z,16.80
2018-08-28T07:02:26.602Z,16.80
2018-08-28T07:04:57.742Z,16.80
2018-08-28T07:07:27.453Z,16.90
2018-08-28T07:09:57.385Z,16.90
2018-08-28T07:12:29.119Z,16.90
2018-08-28T07:15:02.042Z,17.00
2018-08-28T07:17:31.844Z,17.00
2018-08-28T07:20:04.834Z,17.10
2018-08-28T07:22:34.441Z,17.10
2018-08-28T07:25:03.678Z,17.20
2018-08-28T07:27:32.737Z,17.30
2018-08-28T07:30:04.088Z,17.30
2018-08-28T07:32:33.120Z,17.40
2018-08-28T07:35:05.765Z,17.50
2018-08-28T07:37:35.554Z,17.50
2018-08-28T07:40:04.254Z,17.60
2018-08-28T07:42:41.453Z,17.60
2018-08-28T07:45:10.365Z,17.60
2018-08-28T07:47:39.945Z,17.60
2018-08-28T07:50:10.991Z,17.70
2018-08-28T07:52:40.649Z,17.70
2018-08-28T07:55:09.563Z,17.80
2018-08-28T07:57:39.336Z,17.90
2018-08-28T08:00:09.525Z,17.90
2018-08-28T08:02:38.679Z,18.10
2018-08-28T08:05:07.751Z,18.20
2018-08-28T08:07:36.579Z,18.30
2018-08-28T08:10:05.698Z,18.40
2018-08-28T08:12:34.936Z,18.50
2018-08-28T08:15:04.031Z,18.50
2018-08-28T08:17:35.384Z,18.60
2018-08-28T08:20:04.537Z,18.70
2018-08-28T08:22:34.797Z,18.80
2018-08-28T08:25:04.889Z,18.90
2018-08-28T08:27:33.963Z,18.90
2018-08-28T08:30:04.144Z,18.90
2018-08-28T08:32:35.936Z,19.00
2018-08-28T08:35:06.527Z,19.10
2018-08-28T08:37:36.570Z,19.20
2018-08-28T08:40:06.303Z,19.20
2018-08-28T08:42:35.550Z,19.20
2018-08-28T08:45:04.622Z,19.30
2018-08-28T08:47:34.611Z,19.40
2018-08-28T08:50:04.732Z,19.50
2018-08-28T08:57:18.645Z,19.50
2018-08-28T09:00:27.442Z,19.60
2018-08-28T09:03:03.077Z,19.80
2018-08-28T09:05:37.576Z,19.80
2018-08-28T09:08:07.424Z,19.90
2018-08-28T09:10:37.435Z,20.10
2018-08-28T09:13:07.244Z,20.10
2018-08-28T09:15:39.922Z,20.10
2018-08-28T09:21:53.807Z,20.20
2018-08-28T09:25:08.283Z,20.20
2018-08-28T09:42:16.858Z,20.30
2018-08-28T09:44:50.416Z,20.60
2018-08-28T09:47:20.998Z,20.70
2018-08-28T09:49:55.857Z,20.60
2018-08-28T09:55:42.145Z,20.40
2018-08-28T09:58:14.226Z,20.30
2018-08-28T10:03:42.070Z,20.10
2018-08-28T10:06:16.139Z,20.00
2018-08-28T10:08:46.670Z,20.00
2018-08-28T10:11:16.828Z,19.80
2018-08-28T10:13:48.145Z,19.60
2018-08-28T10:20:00.686Z,19.50
2018-08-28T10:22:37.491Z,19.50
2018-08-28T10:25:14.554Z,19.50
2018-08-28T10:27:48.622Z,19.50
2018-08-28T10:30:28.814Z,19.60
2018-08-28T10:33:05.751Z,19.60
2018-08-28T10:36:57.066Z,19.70
2018-08-28T10:42:58.166Z,20.40
2018-08-28T10:45:30.332Z,20.70
2018-08-28T10:48:17.227Z,21.00
2018-08-28T10:50:46.324Z,21.20
2018-08-28T10:53:17.018Z,21.20
2018-08-28T10:55:48.350Z,21.40
2018-08-28T10:58:23.838Z,21.70
2018-08-28T11:00:54.896Z,21.40
2018-08-28T11:03:25.299Z,21.40
2018-08-28T11:05:56.351Z,21.60
2018-08-28T11:08:25.472Z,21.60
2018-08-28T11:10:55.706Z,21.60
2018-08-28T11:13:34.106Z,21.50
2018-08-28T11:16:09.154Z,21.60
2018-08-28T11:18:39.645Z,21.80
2018-08-28T11:21:08.740Z,21.80
2018-08-28T11:23:38.856Z,21.70
2018-08-28T11:26:08.773Z,21.80
2018-08-28T11:28:41.194Z,22.20
2018-08-28T11:31:13.242Z,22.30
2018-08-28T11:33:48.496Z,22.70
2018-08-28T11:36:26.863Z,22.60
2018-08-28T11:38:56.829Z,22.30
2018-08-28T11:41:25.765Z,22.60
2018-08-28T11:43:55.195Z,22.50
2018-08-28T11:46:47.304Z,22.20
2018-08-28T11:49:20.234Z,21.90
2018-08-28T12:26:56.853Z,22.00
2018-08-28T12:29:26.888Z,21.10
2018-08-28T12:31:58.321Z,21.20
2018-08-28T12:34:28.563Z,21.30
2018-08-28T12:36:58.217Z,21.40
2018-08-28T12:39:27.184Z,21.40
2018-08-28T12:41:56.151Z,21.40
2018-08-28T12:44:25.171Z,21.60
2018-08-28T12:46:55.229Z,21.70
2018-08-28T12:49:25.322Z,21.80
2018-08-28T12:51:55.815Z,21.70
2018-08-28T12:54:26.689Z,21.60
2018-08-28T12:56:55.532Z,21.70
2018-08-28T12:59:25.761Z,21.70
2018-08-28T13:01:56.975Z,21.60
2018-08-28T13:04:27.274Z,21.80
2018-08-28T13:06:57.523Z,21.90
2018-08-28T13:09:28.327Z,22.00
2018-08-28T13:11:59.365Z,22.10
2018-08-28T13:14:30.533Z,22.00
2018-08-28T13:17:01.777Z,22.20
2018-08-28T13:19:31.386Z,22.10
2018-08-28T13:22:01.177Z,22.30
2018-08-28T13:24:31.805Z,22.30
2018-08-28T13:27:02.027Z,22.60
2018-08-28T13:29:32.312Z,22.60
2018-08-28T13:32:01.755Z,22.70
2018-08-28T13:34:32.319Z,22.60
2018-08-28T13:37:03.739Z,22.40
2018-08-28T13:39:33.933Z,22.20
2018-08-28T13:42:03.909Z,22.10
2018-08-28T13:44:35.123Z,22.00
2018-08-28T13:47:04.126Z,21.80
2018-08-28T13:49:33.365Z,21.70
2018-08-28T13:52:02.330Z,21.70
2018-08-28T13:54:31.567Z,21.70
2018-08-28T13:57:01.829Z,22.00
2018-08-28T13:59:31.423Z,22.10
2018-08-28T14:02:01.257Z,22.00
2018-08-28T14:04:30.307Z,22.20
2018-08-28T14:07:06.225Z,22.20
2018-08-28T14:09:53.929Z,22.20
2018-08-28T14:18:33.560Z,22.30
2018-08-28T14:21:27.919Z,21.80
2018-08-28T14:24:35.389Z,21.80
2018-08-28T14:29:55.097Z,21.40
2018-08-28T14:32:31.370Z,21.30
2018-08-28T14:35:00.683Z,21.20
2018-08-28T14:37:30.636Z,21.10
2018-08-28T14:40:00.238Z,21.00
2018-08-28T14:42:29.112Z,20.80
2018-08-28T14:44:58.095Z,20.80
2018-08-28T14:47:27.087Z,20.80
2018-08-28T14:49:58.432Z,20.80
2018-08-28T14:52:28.444Z,20.70
2018-08-28T14:55:00.847Z,20.70
2018-08-28T14:57:29.947Z,20.60
2018-08-28T15:00:03.018Z,20.50
2018-08-28T15:02:42.526Z,20.50
2018-08-28T15:05:14.493Z,20.40
2018-08-28T15:07:45.683Z,20.50
2018-08-28T15:10:14.703Z,20.50
2018-08-28T15:13:09.299Z,20.60
2018-08-28T15:16:14.541Z,20.60
2018-08-28T15:22:11.018Z,20.90
2018-08-28T15:24:40.683Z,20.90
2018-08-28T15:27:17.175Z,20.80
2018-08-28T15:29:50.244Z,20.90
2018-08-28T15:32:23.234Z,20.90
2018-08-28T15:35:33.005Z,20.90
2018-08-28T15:51:59.273Z,20.90
2018-08-28T15:54:28.848Z,20.80
2018-08-28T15:57:26.147Z,20.80
2018-08-28T15:59:55.359Z,21.00
2018-08-28T16:02:25.609Z,21.00
2018-08-28T16:05:29.224Z,21.10
2018-08-28T16:07:59.849Z,21.00
2018-08-28T16:10:30.355Z,20.90
2018-08-28T16:13:03.319Z,21.00
2018-08-28T16:15:36.965Z,21.00
2018-08-28T16:18:16.069Z,20.80
2018-08-28T16:20:46.106Z,20.50
2018-08-28T16:23:22.789Z,20.50
2018-08-28T16:25:53.831Z,20.50
2018-08-28T16:28:26.219Z,20.40
2018-08-28T16:30:58.090Z,20.30
2018-08-28T16:33:29.372Z,20.40
2018-08-28T16:36:01.470Z,20.20
2018-08-28T16:38:34.501Z,20.10
2018-08-28T16:41:08.634Z,20.00
2018-08-28T16:43:49.393Z,20.00
2018-08-28T16:46:39.902Z,20.00
2018-08-28T16:49:17.277Z,19.90
2018-08-28T16:51:48.672Z,19.90
2018-08-28T16:54:20.479Z,19.90
2018-08-28T17:00:29.926Z,19.90
2018-08-28T17:03:01.337Z,19.80
2018-08-28T17:05:38.782Z,19.90
2018-08-28T17:09:20.897Z,19.80
2018-08-28T17:11:52.258Z,19.80
2018-08-28T17:14:23.128Z,19.70
2018-08-28T17:16:55.322Z,19.70
2018-08-28T17:19:26.850Z,19.70
2018-08-28T17:21:55.996Z,19.60
2018-08-28T17:24:26.580Z,19.60
2018-08-28T17:27:16.984Z,19.60
2018-08-28T17:30:56.355Z,19.50
2018-08-28T17:33:26.330Z,19.50
2018-08-28T17:35:55.700Z,19.30
2018-08-28T17:38:26.057Z,19.20
2018-08-28T17:41:04.837Z,19.20
2018-08-28T18:00:26.291Z,19.20
2018-08-28T18:03:00.284Z,19.00
2018-08-28T18:05:30.578Z,18.80
2018-08-28T18:08:07.872Z,18.60
2018-08-28T18:10:41.038Z,18.50
2018-08-28T18:13:14.537Z,18.40
2018-08-28T18:15:44.928Z,18.30
2018-08-28T18:18:13.797Z,18.30
2018-08-28T18:20:42.813Z,18.30
2018-08-28T18:23:12.041Z,18.20
2018-08-28T18:25:45.562Z,18.30
2018-08-28T18:28:15.969Z,18.10
2018-08-28T18:30:45.679Z,18.10
2018-08-28T18:33:15.829Z,18.00
2018-08-28T18:35:47.872Z,18.10
2018-08-28T18:40:56.957Z,18.10
2018-08-28T18:43:28.589Z,17.90
2018-08-28T18:58:20.491Z,17.60
2018-08-28T19:36:16.834Z,17.10
2018-08-28T19:38:57.714Z,16.30
2018-08-28T19:41:36.119Z,16.20
2018-08-28T19:44:06.995Z,16.10
2018-08-28T19:46:45.986Z,16.10
2018-08-28T19:49:16.191Z,16.00
2018-08-28T19:51:47.387Z,16.00
2018-08-28T19:54:34.613Z,15.90
2018-08-28T19:57:08.152Z,15.90
2018-08-28T19:59:46.941Z,15.80
2018-08-28T21:03:19.177Z,15.40
2018-08-28T21:05:49.510Z,14.80
2018-08-28T21:08:18.597Z,14.70
2018-08-28T21:10:47.985Z,14.70
2018-08-28T21:13:17.674Z,14.70
2018-08-28T21:15:46.820Z,14.70
2018-08-28T21:18:17.573Z,14.70
2018-08-28T21:20:50.205Z,14.60
2018-08-28T21:23:21.263Z,14.60
2018-08-28T21:25:51.220Z,14.60
2018-08-28T21:28:22.202Z,14.70
2018-08-28T21:30:54.105Z,14.80
2018-08-28T21:33:24.420Z,14.90
2018-08-28T21:35:55.063Z,14.80
2018-08-28T21:38:27.214Z,14.70
2018-08-28T21:41:05.559Z,14.70
2018-08-28T21:43:37.125Z,14.60
2018-08-28T21:46:06.553Z,14.60
2018-08-28T21:49:07.231Z,14.60
2018-08-28T21:51:49.831Z,14.50
2018-08-28T22:09:02.281Z,14.60
2018-08-28T22:11:45.905Z,14.60
2018-08-28T22:14:42.573Z,14.50
2018-08-28T22:17:36.599Z,14.50
2018-08-28T22:20:12.300Z,14.50
2018-08-28T22:23:22.272Z,14.60
2018-08-28T22:25:52.662Z,14.50
2018-08-28T22:28:22.149Z,14.40
2018-08-28T22:30:51.766Z,14.40
2018-08-28T22:33:22.422Z,14.30
2018-08-28T22:35:53.520Z,14.30
2018-08-28T22:38:58.850Z,14.30
2018-08-28T22:41:36.060Z,14.20
2018-08-28T22:44:05.753Z,14.20
2018-08-28T22:46:35.892Z,14.10
2018-08-28T22:49:05.770Z,14.10
2018-08-28T22:51:34.696Z,14.00
2018-08-28T22:54:04.746Z,14.00
2018-08-28T22:56:34.238Z,14.10
2018-08-28T22:59:04.755Z,14.00
2018-08-28T23:01:33.568Z,14.00
2018-08-28T23:04:02.326Z,14.10
2018-08-28T23:06:32.553Z,14.10
2018-08-28T23:09:02.206Z,14.00
2018-08-28T23:11:31.101Z,14.00
2018-08-28T23:14:00.631Z,14.00
2018-08-28T23:16:30.441Z,14.00
2018-08-28T23:19:01.523Z,14.00
2018-08-28T23:21:31.959Z,14.00
2018-08-28T23:24:01.098Z,13.90
2018-08-28T23:26:32.135Z,14.00
2018-08-28T23:29:02.093Z,14.00
2018-08-28T23:31:33.079Z,14.00
2018-08-28T23:34:03.235Z,14.00
2018-08-28T23:36:32.117Z,14.10
2018-08-28T23:39:01.143Z,14.20
2018-08-28T23:41:30.412Z,14.20
2018-08-28T23:43:59.231Z,14.10
2018-08-28T23:46:28.992Z,14.10
2018-08-28T23:48:59.682Z,14.10
2018-08-28T23:51:28.608Z,14.00
2018-08-28T23:53:57.584Z,14.00
2018-08-28T23:56:27.284Z,14.00
2018-08-28T23:58:56.696Z,13.90
